Winter Park, Colorado
Current Conditions -  °F | °C
As of 2:15 AM on Wednesday 28 Jan 2015 (Local Time) from K0CO Reporting Station
Haze Haze  
Wind Chill: -3°   Ceiling: 500
Heat Index: 18°   Visibility: 5mi
Dew Point: 12°   Wind: 32mph
Humidity: 79%   Direction: 320°NW
Pressure: 30.21"   Gusts: 40mph
Location:  39.89°N, 105.76°W
Report Text: K0CO 280915Z AUTO 32028G35KT 5SM HZ BKN005 OVC010 M08/M11 A3021 RMK AO2
Loading
Personal Weather Stations






























Interactive Weather Map New forecast layout! Learn more

10-Day Weather Forecast

Advertisements
Track Severe Weather on mobile